SPLFK EPPT-EPLL
Flight info
| Callsign | SPLFK |
|---|---|
| Flight time | 0h 15m |
| Altitude | 1800 |
| Route | EPPT DCT EPLLA DCT EPLLS DCT EPLL |
| Aircraft | P208/L-V/N |
Departure
| Time | 2026-04-24 19:32 |
|---|---|
| Airport | Piotrków Trybunalski-Bujny Airfield (EPPT) |
Arrival
| Time | 2026-04-24 19:48 |
|---|---|
| Airport | Łódź Władysław Reymont Airport (EPLL) |
| Time | Latitude | Longitude | Altitude | Speed | Heading |
|---|---|---|---|---|---|
| 2026-04-24 19:32 | 51.40977 | 19.66876 | 1860 ft | 74 kts | 347° |
| 2026-04-24 19:32 | 51.41529 | 19.66762 | 1753 ft | 91 kts | 345° |
| 2026-04-24 19:32 | 51.42204 | 19.66521 | 1662 ft | 108 kts | 355° |
| 2026-04-24 19:32 | 51.43004 | 19.66341 | 1688 ft | 124 kts | 359° |
| 2026-04-24 19:33 | 51.43879 | 19.66039 | 1709 ft | 131 kts | 345° |
| 2026-04-24 19:33 | 51.44744 | 19.65591 | 1770 ft | 133 kts | 348° |
| 2026-04-24 19:33 | 51.45657 | 19.65360 | 1765 ft | 135 kts | 349° |
| 2026-04-24 19:33 | 51.46558 | 19.64941 | 1770 ft | 135 kts | 347° |
| 2026-04-24 19:34 | 51.47489 | 19.64534 | 1762 ft | 142 kts | 348° |
| 2026-04-24 19:34 | 51.48446 | 19.64114 | 1767 ft | 143 kts | 348° |
| 2026-04-24 19:34 | 51.49415 | 19.63680 | 1760 ft | 145 kts | 348° |
| 2026-04-24 19:34 | 51.50382 | 19.63230 | 1760 ft | 144 kts | 348° |
| 2026-04-24 19:35 | 51.51324 | 19.62690 | 1763 ft | 144 kts | 344° |
| 2026-04-24 19:35 | 51.52265 | 19.62128 | 1763 ft | 143 kts | 343° |
| 2026-04-24 19:35 | 51.53198 | 19.61570 | 1767 ft | 145 kts | 343° |
| 2026-04-24 19:35 | 51.54146 | 19.61016 | 1762 ft | 144 kts | 343° |
| 2026-04-24 19:36 | 51.55084 | 19.60435 | 1768 ft | 145 kts | 343° |
| 2026-04-24 19:36 | 51.56038 | 19.59868 | 1770 ft | 145 kts | 341° |
| 2026-04-24 19:36 | 51.56984 | 19.59296 | 1762 ft | 146 kts | 349° |
| 2026-04-24 19:36 | 51.57963 | 19.58836 | 1764 ft | 147 kts | 348° |
| 2026-04-24 19:37 | 51.58946 | 19.58336 | 1797 ft | 152 kts | 344° |
| 2026-04-24 19:37 | 51.59791 | 19.58057 | 1734 ft | 100 kts | 342° |
| 2026-04-24 19:37 | 51.60368 | 19.58025 | 1747 ft | 70 kts | 346° |
| 2026-04-24 19:37 | 51.60802 | 19.58052 | 1635 ft | 64 kts | 341° |
| 2026-04-24 19:38 | 51.61250 | 19.57961 | 1464 ft | 63 kts | 338° |
| 2026-04-24 19:38 | 51.61673 | 19.57802 | 1368 ft | 63 kts | 328° |
| 2026-04-24 19:38 | 51.62090 | 19.57497 | 1199 ft | 72 kts | 326° |
| 2026-04-24 19:38 | 51.62535 | 19.57215 | 1182 ft | 72 kts | 332° |
| 2026-04-24 19:39 | 51.62899 | 19.56699 | 1233 ft | 74 kts | 301° |
| 2026-04-24 19:39 | 51.63209 | 19.56002 | 1269 ft | 79 kts | 300° |
| 2026-04-24 19:39 | 51.63521 | 19.55243 | 1229 ft | 83 kts | 301° |
| 2026-04-24 19:39 | 51.63845 | 19.54551 | 1337 ft | 71 kts | 301° |
| 2026-04-24 19:40 | 51.64112 | 19.53858 | 1389 ft | 73 kts | 300° |
| 2026-04-24 19:40 | 51.64382 | 19.53156 | 1370 ft | 79 kts | 297° |
| 2026-04-24 19:40 | 51.64681 | 19.52389 | 1321 ft | 82 kts | 302° |
| 2026-04-24 19:40 | 51.65046 | 19.51674 | 1263 ft | 84 kts | 308° |
| 2026-04-24 19:41 | 51.65454 | 19.50998 | 1241 ft | 86 kts | 309° |
| 2026-04-24 19:41 | 51.65867 | 19.50293 | 1184 ft | 84 kts | 304° |
| 2026-04-24 19:41 | 51.66265 | 19.49658 | 1251 ft | 78 kts | 312° |
| 2026-04-24 19:41 | 51.66620 | 19.49053 | 1264 ft | 78 kts | 299° |
| 2026-04-24 19:42 | 51.66762 | 19.48561 | 1366 ft | 69 kts | 285° |
| 2026-04-24 19:42 | 51.66764 | 19.47839 | 1490 ft | 66 kts | 266° |
| 2026-04-24 19:42 | 51.66824 | 19.47046 | 1374 ft | 78 kts | 292° |
| 2026-04-24 19:42 | 51.67100 | 19.46236 | 1318 ft | 84 kts | 298° |
| 2026-04-24 19:43 | 51.67382 | 19.45431 | 1301 ft | 85 kts | 296° |
| 2026-04-24 19:43 | 51.67669 | 19.44617 | 1293 ft | 84 kts | 296° |
| 2026-04-24 19:43 | 51.67973 | 19.43802 | 1184 ft | 82 kts | 302° |
| 2026-04-24 19:43 | 51.68381 | 19.43160 | 1125 ft | 82 kts | 314° |
| 2026-04-24 19:44 | 51.68788 | 19.42476 | 1004 ft | 86 kts | 314° |
| 2026-04-24 19:44 | 51.69246 | 19.41982 | 1178 ft | 75 kts | 314° |
| 2026-04-24 19:44 | 51.69695 | 19.41433 | 1119 ft | 85 kts | 319° |
| 2026-04-24 19:44 | 51.70284 | 19.41632 | 1027 ft | 102 kts | 36° |
| 2026-04-24 19:45 | 51.70562 | 19.42574 | 1181 ft | 97 kts | 66° |
| 2026-04-24 19:45 | 51.70733 | 19.43610 | 1276 ft | 91 kts | 66° |
| 2026-04-24 19:45 | 51.71170 | 19.44233 | 1299 ft | 74 kts | 349° |
| 2026-04-24 19:45 | 51.71633 | 19.44219 | 1294 ft | 63 kts | 342° |
| 2026-04-24 19:46 | 51.72087 | 19.44073 | 1316 ft | 67 kts | 335° |
| 2026-04-24 19:46 | 51.72562 | 19.43865 | 1247 ft | 77 kts | 327° |
| 2026-04-24 19:46 | 51.72961 | 19.43461 | 1068 ft | 63 kts | 303° |
| 2026-04-24 19:46 | 51.72927 | 19.42858 | 1008 ft | 60 kts | 248° |
| 2026-04-24 19:47 | 51.72756 | 19.42263 | 853 ft | 62 kts | 242° |
| 2026-04-24 19:47 | 51.72594 | 19.41628 | 758 ft | 54 kts | 250° |
| 2026-04-24 19:47 | 51.72475 | 19.41082 | 687 ft | 53 kts | 246° |
| 2026-04-24 19:47 | 51.72349 | 19.40527 | 635 ft | 54 kts | 246° |
| 2026-04-24 19:48 | 51.72233 | 19.39999 | 602 ft | 39 kts | 248° |
| 2026-04-24 19:48 | 51.72131 | 19.39553 | 587 ft | 59 kts | 252° |
| 2026-04-24 19:48 | 51.71883 | 19.38241 | 953 ft | 61 kts | 252° |
| 2026-04-24 19:49 | 51.71498 | 19.37084 | 1404 ft | 63 kts | 229° |
| 2026-04-24 19:49 | 51.70245 | 19.37463 | 1429 ft | 109 kts | 174° |
| 2026-04-24 19:50 | 51.69700 | 19.40360 | 1637 ft | 103 kts | 60° |
| 2026-04-24 19:50 | 51.69991 | 19.41478 | 1442 ft | 109 kts | 56° |
| 2026-04-24 19:51 | 51.70482 | 19.43700 | 1276 ft | 106 kts | 69° |
| 2026-04-24 19:51 | 51.70678 | 19.44819 | 1259 ft | 101 kts | 63° |
| 2026-04-24 19:52 | 51.71691 | 19.45209 | 1132 ft | 79 kts | 337° |
| 2026-04-24 19:52 | 51.72114 | 19.45052 | 1266 ft | 59 kts | 332° |
| 2026-04-24 19:52 | 51.72509 | 19.44851 | 1300 ft | 58 kts | 327° |
| 2026-04-24 19:52 | 51.72891 | 19.44582 | 1374 ft | 67 kts | 320° |
| 2026-04-24 19:53 | 51.73084 | 19.44046 | 1268 ft | 55 kts | 262° |
| 2026-04-24 19:53 | 51.72966 | 19.43421 | 1049 ft | 59 kts | 253° |
| 2026-04-24 19:53 | 51.72705 | 19.42135 | 808 ft | 64 kts | 252° |
| 2026-04-24 19:54 | 51.72545 | 19.41442 | 741 ft | 67 kts | 248° |
| 2026-04-24 19:54 | 51.72398 | 19.40768 | 648 ft | 58 kts | 249° |
| 2026-04-24 19:54 | 51.72277 | 19.40225 | 604 ft | 42 kts | 249° |
| 2026-04-24 19:54 | 51.72213 | 19.39931 | 596 ft | 22 kts | 253° |
| 2026-04-24 19:55 | 51.72191 | 19.39798 | 592 ft | 12 kts | 211° |
| 2026-04-24 19:55 | 51.72175 | 19.39831 | 593 ft | 15 kts | 58° |
| 2026-04-24 19:55 | 51.72252 | 19.40124 | 601 ft | 42 kts | 71° |
| 2026-04-24 19:55 | 51.72351 | 19.40565 | 612 ft | 20 kts | 78° |
| 2026-04-24 19:56 | 51.72299 | 19.40680 | 615 ft | 12 kts | 141° |
| 2026-04-24 19:56 | 51.72222 | 19.40772 | 607 ft | 17 kts | 143° |
| 2026-04-24 19:56 | 51.72126 | 19.40835 | 605 ft | 15 kts | 175° |
| 2026-04-24 19:56 | 51.72023 | 19.40856 | 605 ft | 13 kts | 175° |
| 2026-04-24 19:57 | 51.72001 | 19.40874 | 607 ft | 0 kts | 124° |